createdAt,value
2018-12-14T00:01:06.850Z,101963.43
2018-12-14T00:03:34.402Z,101965.75
2018-12-14T00:06:01.963Z,101973.75
2018-12-14T00:08:29.522Z,101965.63
2018-12-14T00:10:57.108Z,101976.30
2018-12-14T00:13:24.663Z,101968.64
2018-12-14T00:15:52.247Z,101966.09
2018-12-14T00:18:19.891Z,101969.52
2018-12-14T00:20:47.482Z,101972.33
2018-12-14T00:23:15.070Z,101968.03
2018-12-14T00:25:42.654Z,101970.76
2018-12-14T00:28:10.239Z,101972.93
2018-12-14T00:30:37.788Z,101971.39
2018-12-14T00:33:05.401Z,101978.36
2018-12-14T00:35:34.240Z,101976.66
2018-12-14T00:38:01.784Z,101985.52
2018-12-14T00:40:29.345Z,101980.06
2018-12-14T00:42:56.957Z,101983.26
2018-12-14T00:45:24.528Z,101983.73
2018-12-14T00:47:52.222Z,101986.09
2018-12-14T00:50:19.836Z,101991.27
2018-12-14T00:52:47.380Z,101987.78
2018-12-14T00:55:14.988Z,101994.74
2018-12-14T00:57:42.535Z,101991.40
2018-12-14T01:00:10.596Z,101999.58
2018-12-14T01:02:38.287Z,101997.41
2018-12-14T01:05:06.807Z,101998.17
2018-12-14T01:07:34.478Z,101999.40
2018-12-14T01:10:02.075Z,102008.16
2018-12-14T01:12:29.670Z,102008.89
2018-12-14T01:14:57.326Z,102009.37
2018-12-14T01:17:24.935Z,102004.84
2018-12-14T01:19:52.498Z,102006.56
2018-12-14T01:22:20.217Z,102007.70
2018-12-14T01:24:48.119Z,102010.80
2018-12-14T01:27:15.685Z,102008.72
2018-12-14T01:29:43.320Z,102012.37
2018-12-14T01:32:10.881Z,102010.23
2018-12-14T01:34:38.455Z,102007.39
2018-12-14T01:37:06.026Z,102003.16
2018-12-14T01:39:33.719Z,102001.84
2018-12-14T01:42:04.889Z,102004.76
2018-12-14T01:44:30.851Z,102008.93
2018-12-14T01:46:58.429Z,102003.44
2018-12-14T01:49:25.999Z,102005.52
2018-12-14T01:51:53.549Z,102006.17
2018-12-14T01:54:21.178Z,101998.37
2018-12-14T01:56:48.781Z,102000.06
2018-12-14T01:59:16.720Z,101995.75
2018-12-14T02:01:45.110Z,102000.44
2018-12-14T02:04:12.692Z,101999.34
2018-12-14T02:06:40.281Z,101999.52
2018-12-14T02:09:08.215Z,102005.72
2018-12-14T02:11:36.042Z,102006.02
2018-12-14T02:14:03.587Z,102004.70
2018-12-14T02:16:31.149Z,102000.66
2018-12-14T02:18:58.745Z,101997.81
2018-12-14T02:21:26.319Z,101995.56
2018-12-14T02:23:53.916Z,101996.59
2018-12-14T02:26:21.575Z,101997.05
2018-12-14T02:28:49.167Z,102001.77
2018-12-14T02:31:16.818Z,101994.42
2018-12-14T02:33:44.436Z,101996.52
2018-12-14T02:36:11.986Z,101996.22
2018-12-14T02:38:39.596Z,101998.78
2018-12-14T02:41:07.181Z,101994.92
2018-12-14T02:43:35.120Z,101991.94
2018-12-14T02:46:02.658Z,101997.08
2018-12-14T02:48:30.230Z,101998.52
2018-12-14T02:50:57.834Z,102003.67
2018-12-14T02:53:25.499Z,101997.20
2018-12-14T02:55:53.084Z,102001.97
2018-12-14T02:58:20.667Z,102000.08
2018-12-14T03:00:48.288Z,101999.70
2018-12-14T03:03:15.847Z,101998.77
2018-12-14T03:05:43.549Z,102002.47
2018-12-14T03:08:11.132Z,101993.80
2018-12-14T03:10:39.067Z,101998.23
2018-12-14T03:13:07.023Z,101999.33
2018-12-14T03:15:34.577Z,101998.02
2018-12-14T03:18:02.164Z,101997.85
2018-12-14T03:20:29.718Z,101999.72
2018-12-14T03:22:57.287Z,102005.45
2018-12-14T03:25:24.868Z,102003.77
2018-12-14T03:27:52.424Z,102002.56
2018-12-14T03:30:19.991Z,102000.02
2018-12-14T03:32:47.641Z,101997.47
2018-12-14T03:35:15.575Z,101996.36
2018-12-14T03:37:43.440Z,102001.97
2018-12-14T03:40:11.035Z,102003.88
2018-12-14T03:42:38.862Z,102002.73
2018-12-14T03:45:06.500Z,102000.48
2018-12-14T03:47:34.118Z,101992.58
2018-12-14T03:50:01.975Z,101996.24
2018-12-14T03:52:29.598Z,101989.02
2018-12-14T03:54:57.191Z,101995.39
2018-12-14T03:57:24.739Z,101990.59
2018-12-14T03:59:52.348Z,101992.59
2018-12-14T04:02:19.909Z,101995.59
2018-12-14T04:04:47.461Z,101994.08
2018-12-14T04:07:15.407Z,101995.02
2018-12-14T04:09:43.271Z,101997.09
2018-12-14T04:12:10.870Z,101987.95
2018-12-14T04:14:38.683Z,101990.89
2018-12-14T04:17:06.503Z,101991.44
2018-12-14T04:19:34.124Z,102001.59
2018-12-14T04:22:01.684Z,101998.41
2018-12-14T04:24:29.266Z,102002.73
2018-12-14T04:26:56.833Z,101996.23
2018-12-14T04:29:24.434Z,102005.07
2018-12-14T04:31:52.010Z,102006.69
2018-12-14T04:34:19.565Z,102003.41
2018-12-14T04:36:47.110Z,102009.23
2018-12-14T04:39:14.703Z,102003.11
2018-12-14T04:41:42.578Z,102008.30
2018-12-14T04:44:10.144Z,102002.91
2018-12-14T04:46:37.733Z,102001.80
2018-12-14T04:49:05.276Z,102008.38
2018-12-14T04:51:32.891Z,102005.92
2018-12-14T04:54:00.464Z,102004.60
2018-12-14T04:56:28.046Z,102012.50
2018-12-14T04:58:55.628Z,102005.54
2018-12-14T05:01:23.203Z,102003.88
2018-12-14T05:03:50.782Z,102003.20
2018-12-14T05:06:18.382Z,101997.93
2018-12-14T05:08:45.917Z,102010.08
2018-12-14T05:11:13.824Z,102009.31
2018-12-14T05:13:41.395Z,102002.35
2018-12-14T05:16:08.950Z,102012.03
2018-12-14T05:18:36.668Z,102013.18
2018-12-14T05:21:04.245Z,102011.77
2018-12-14T05:23:31.789Z,102015.22
2018-12-14T05:25:59.366Z,102009.70
2018-12-14T05:28:26.978Z,102012.88
2018-12-14T05:30:54.547Z,102016.58
2018-12-14T05:33:22.128Z,102014.59
2018-12-14T05:35:49.683Z,102017.05
2018-12-14T05:38:17.604Z,102018.06
2018-12-14T05:40:45.195Z,102024.73
2018-12-14T05:43:12.842Z,102027.57
2018-12-14T05:45:40.457Z,102022.39
2018-12-14T05:48:08.026Z,102023.50
2018-12-14T05:50:35.762Z,102022.48
2018-12-14T05:53:03.324Z,102025.48
2018-12-14T05:55:31.250Z,102024.17
2018-12-14T05:57:58.856Z,102022.86
2018-12-14T06:00:26.676Z,102021.80
2018-12-14T06:02:54.297Z,102026.98
2018-12-14T06:05:21.956Z,102031.59
2018-12-14T06:07:49.538Z,102030.83
2018-12-14T06:10:17.113Z,102037.33
2018-12-14T06:12:44.728Z,102036.75
2018-12-14T06:15:12.363Z,102040.98
2018-12-14T06:17:40.430Z,102037.34
2018-12-14T06:20:08.281Z,102037.14
2018-12-14T06:22:35.852Z,102036.58
2018-12-14T06:25:03.700Z,102039.05
2018-12-14T06:27:31.280Z,102036.59
2018-12-14T06:29:58.866Z,102048.17
2018-12-14T06:32:26.438Z,102040.53
2018-12-14T06:34:54.037Z,102046.02
2018-12-14T06:37:21.822Z,102048.99
2018-12-14T06:39:49.376Z,102057.87
2018-12-14T06:42:17.308Z,102056.34
2018-12-14T06:44:44.878Z,102064.92
2018-12-14T06:47:12.534Z,102061.43
2018-12-14T06:49:40.145Z,102072.13
2018-12-14T06:52:07.767Z,102067.92
2018-12-14T06:54:35.318Z,102068.85
2018-12-14T06:57:03.108Z,102070.72
2018-12-14T06:59:30.667Z,102067.62
2018-12-14T07:01:58.406Z,102072.98
2018-12-14T07:04:26.161Z,102074.97
2018-12-14T07:06:53.841Z,102076.92
2018-12-14T07:09:21.377Z,102071.56
2018-12-14T07:11:48.992Z,102079.08
2018-12-14T07:14:16.566Z,102086.22
2018-12-14T07:16:44.141Z,102082.56
2018-12-14T07:19:11.673Z,102087.62
2018-12-14T07:21:39.561Z,102083.58
2018-12-14T07:24:07.188Z,102086.68
2018-12-14T07:26:35.256Z,102087.91
2018-12-14T07:29:03.336Z,102085.95
2018-12-14T07:31:31.446Z,102084.81
2018-12-14T07:33:59.058Z,102082.27
2018-12-14T07:36:26.647Z,102090.15
2018-12-14T07:38:54.232Z,102093.93
2018-12-14T07:41:21.820Z,102089.61
2018-12-14T07:43:49.461Z,102096.20
2018-12-14T07:48:50.828Z,102097.56
2018-12-14T07:51:18.459Z,102099.56
2018-12-14T07:53:46.064Z,102099.20
2018-12-14T07:56:13.671Z,102105.78
2018-12-14T07:58:41.846Z,102110.84
2018-12-14T08:01:09.497Z,102110.30
2018-12-14T08:03:37.152Z,102115.78
2018-12-14T08:06:04.753Z,102120.27
2018-12-14T08:08:32.339Z,102119.20
2018-12-14T08:10:59.915Z,102119.73
2018-12-14T08:13:27.896Z,102124.41
2018-12-14T08:15:55.834Z,102119.14
2018-12-14T08:18:23.465Z,102128.77
2018-12-14T08:20:51.050Z,102130.08
2018-12-14T08:23:18.654Z,102130.63
2018-12-14T08:25:46.207Z,102134.39
2018-12-14T08:28:13.791Z,102136.09
2018-12-14T08:30:41.406Z,102134.78
2018-12-14T08:33:09.567Z,102137.05
2018-12-14T08:35:37.179Z,102147.20
2018-12-14T08:38:04.850Z,102142.14
2018-12-14T08:40:32.509Z,102142.78
2018-12-14T08:43:00.226Z,102139.30
2018-12-14T08:45:28.091Z,102140.45
2018-12-14T08:47:55.801Z,102147.21
2018-12-14T08:50:23.467Z,102152.11
2018-12-14T08:52:51.039Z,102152.50
2018-12-14T08:55:18.701Z,102156.27
2018-12-14T08:57:46.309Z,102154.97
2018-12-14T09:00:13.858Z,102156.91
2018-12-14T09:02:41.427Z,102160.87
2018-12-14T09:05:09.027Z,102162.50
2018-12-14T09:07:36.671Z,102166.27
2018-12-14T09:10:05.856Z,102168.98
2018-12-14T09:12:33.500Z,102167.00
2018-12-14T09:15:01.134Z,102166.28
2018-12-14T09:17:28.669Z,102168.06
2018-12-14T09:19:56.368Z,102170.03
2018-12-14T09:22:23.974Z,102170.58
2018-12-14T09:24:51.550Z,102170.50
2018-12-14T09:27:19.129Z,102174.35
2018-12-14T09:29:46.733Z,102177.67
2018-12-14T09:32:14.544Z,102176.06
2018-12-14T09:34:42.324Z,102174.35
2018-12-14T09:37:09.878Z,102173.22
2018-12-14T09:39:37.513Z,102175.30
2018-12-14T09:42:05.471Z,102177.39
2018-12-14T09:44:33.112Z,102176.63
2018-12-14T09:47:00.693Z,102175.30
2018-12-14T09:49:28.243Z,102180.95
2018-12-14T09:51:55.806Z,102168.34
2018-12-14T09:54:23.389Z,102171.74
2018-12-14T09:56:50.957Z,102179.00
2018-12-14T09:59:18.591Z,102171.66
2018-12-14T10:01:46.151Z,102172.77
2018-12-14T10:04:13.721Z,102175.13
2018-12-14T10:06:42.212Z,102173.53
2018-12-14T10:09:09.761Z,102180.80
2018-12-14T10:11:37.358Z,102173.55
2018-12-14T10:14:05.192Z,102170.91
2018-12-14T10:16:32.780Z,102170.81
2018-12-14T10:19:00.752Z,102172.80
2018-12-14T10:21:28.343Z,102174.78
2018-12-14T10:23:55.946Z,102176.02
2018-12-14T10:26:23.554Z,102172.91
2018-12-14T10:28:51.274Z,102175.72
2018-12-14T10:31:18.880Z,102181.45
2018-12-14T10:33:46.523Z,102175.81
2018-12-14T10:36:14.101Z,102174.02
2018-12-14T10:38:41.680Z,102179.13
2018-12-14T10:41:09.240Z,102178.02
2018-12-14T10:43:36.838Z,102169.72
2018-12-14T10:46:04.386Z,102172.36
2018-12-14T10:48:31.948Z,102169.98
2018-12-14T10:51:00.284Z,102173.85
2018-12-14T10:53:27.862Z,102171.04
2018-12-14T10:55:55.433Z,102167.17
2018-12-14T10:58:23.037Z,102165.39
2018-12-14T11:00:56.344Z,102164.63
2018-12-14T11:03:23.934Z,102169.34
2018-12-14T11:05:51.571Z,102169.34
2018-12-14T11:08:19.273Z,102173.76
2018-12-14T11:10:47.029Z,102168.78
2018-12-14T11:13:14.707Z,102171.59
2018-12-14T11:15:42.609Z,102174.78
2018-12-14T11:18:10.176Z,102177.25
2018-12-14T11:20:37.751Z,102175.92
2018-12-14T11:23:05.357Z,102178.01
2018-12-14T11:25:32.954Z,102179.20
2018-12-14T11:28:00.582Z,102181.97
2018-12-14T11:30:28.182Z,102181.29
2018-12-14T11:32:55.750Z,102183.28
2018-12-14T11:35:23.354Z,102184.39
2018-12-14T11:37:50.941Z,102183.28
2018-12-14T11:40:18.482Z,102181.67
2018-12-14T11:42:46.041Z,102183.08
2018-12-14T11:45:13.955Z,102181.58
2018-12-14T11:47:41.503Z,102183.08
2018-12-14T11:50:09.143Z,102186.77
2018-12-14T11:52:36.748Z,102186.01
2018-12-14T11:55:06.330Z,102194.48
2018-12-14T11:57:33.950Z,102193.84
2018-12-14T12:00:01.519Z,102194.30
2018-12-14T12:02:29.105Z,102193.33
2018-12-14T12:04:56.886Z,102188.35
2018-12-14T12:07:24.447Z,102187.88
2018-12-14T12:09:52.024Z,102187.97
2018-12-14T12:12:20.085Z,102192.31
2018-12-14T12:14:47.642Z,102188.91
2018-12-14T12:17:15.303Z,102193.45
2018-12-14T12:19:42.971Z,102193.84
2018-12-14T12:22:10.569Z,102191.08
2018-12-14T12:24:38.133Z,102185.33
2018-12-14T12:27:05.874Z,102189.59
2018-12-14T12:29:33.490Z,102194.48
2018-12-14T12:32:01.066Z,102194.77
2018-12-14T12:34:28.685Z,102186.86
2018-12-14T12:36:56.284Z,102189.29
2018-12-14T12:39:24.370Z,102192.31
2018-12-14T12:41:52.010Z,102189.87
2018-12-14T12:44:19.636Z,102191.75
2018-12-14T12:46:47.301Z,102198.14
2018-12-14T12:49:14.884Z,102191.38
2018-12-14T12:51:42.412Z,102192.98
2018-12-14T12:54:10.267Z,102192.13
2018-12-14T12:56:37.888Z,102189.87
2018-12-14T12:59:05.551Z,102192.60
2018-12-14T13:01:33.157Z,102185.89
2018-12-14T13:04:00.764Z,102183.38
2018-12-14T13:06:28.366Z,102183.08
2018-12-14T13:08:55.918Z,102183.45
2018-12-14T13:11:23.678Z,102182.31
2018-12-14T13:13:51.272Z,102187.59
2018-12-14T13:16:18.872Z,102186.94
2018-12-14T13:18:46.632Z,102190.81
2018-12-14T13:21:14.206Z,102197.19
2018-12-14T13:23:41.874Z,102197.39
2018-12-14T13:26:09.431Z,102201.53
2018-12-14T13:28:37.091Z,102207.73
2018-12-14T13:31:04.747Z,102207.44
2018-12-14T13:33:32.382Z,102208.95
2018-12-14T13:35:59.942Z,102207.94
2018-12-14T13:38:27.521Z,102209.97
2018-12-14T13:40:55.163Z,102205.83
2018-12-14T13:43:22.752Z,102213.73
2018-12-14T13:45:53.443Z,102215.89
2018-12-14T13:48:21.064Z,102217.29
2018-12-14T13:50:48.852Z,102215.32
2018-12-14T13:53:16.452Z,102219.57
2018-12-14T13:55:44.066Z,102214.13
2018-12-14T13:58:11.663Z,102218.07
2018-12-14T14:00:39.225Z,102214.29
2018-12-14T14:03:06.809Z,102213.25
2018-12-14T14:05:34.416Z,102214.67
2018-12-14T14:08:01.988Z,102214.66
2018-12-14T14:10:29.633Z,102215.97
2018-12-14T14:12:57.161Z,102219.01
2018-12-14T14:15:24.752Z,102222.20
2018-12-14T14:17:52.408Z,102225.61
2018-12-14T14:20:20.041Z,102227.31
2018-12-14T14:22:47.759Z,102223.83
2018-12-14T14:25:17.695Z,102227.48
2018-12-14T14:27:45.069Z,102227.86
2018-12-14T14:30:12.889Z,102232.91
2018-12-14T14:32:40.780Z,102236.83
2018-12-14T14:35:08.363Z,102246.06
2018-12-14T14:37:35.971Z,102245.62
2018-12-14T14:40:04.238Z,102246.09
2018-12-14T14:42:31.825Z,102247.61
2018-12-14T14:45:00.055Z,102251.37
2018-12-14T14:47:27.854Z,102251.97
2018-12-14T14:49:55.753Z,102252.69
2018-12-14T14:52:23.331Z,102254.28
2018-12-14T14:54:51.227Z,102251.34
2018-12-14T14:57:18.965Z,102251.92
2018-12-14T14:59:46.815Z,102254.34
2018-12-14T15:02:14.395Z,102250.87
2018-12-14T15:04:42.011Z,102259.09
2018-12-14T15:07:09.809Z,102253.98
2018-12-14T15:09:37.403Z,102254.56
2018-12-14T15:12:05.341Z,102260.77
2018-12-14T15:14:32.948Z,102261.89
2018-12-14T15:17:00.504Z,102259.39
2018-12-14T15:19:28.146Z,102265.11
2018-12-14T15:21:55.715Z,102265.48
2018-12-14T15:24:23.290Z,102265.48
2018-12-14T15:26:50.848Z,102267.08
2018-12-14T15:29:18.447Z,102267.54
2018-12-14T15:31:47.109Z,102271.55
2018-12-14T15:34:15.236Z,102267.80
2018-12-14T15:36:42.839Z,102272.38
2018-12-14T15:39:10.451Z,102270.35
2018-12-14T15:41:38.037Z,102273.56
2018-12-14T15:44:05.615Z,102271.94
2018-12-14T15:46:33.289Z,102272.98
2018-12-14T15:49:00.843Z,102274.84
2018-12-14T15:51:28.531Z,102277.05
2018-12-14T15:53:56.168Z,102282.42
2018-12-14T15:56:23.728Z,102285.80
2018-12-14T15:58:51.336Z,102287.14
2018-12-14T16:01:18.926Z,102286.92
2018-12-14T16:03:46.576Z,102287.75
2018-12-14T16:06:14.547Z,102293.95
2018-12-14T16:08:42.129Z,102292.36
2018-12-14T16:11:09.714Z,102292.52
2018-12-14T16:13:37.272Z,102295.46
2018-12-14T16:16:05.071Z,102298.56
2018-12-14T16:18:32.789Z,102297.80
2018-12-14T16:21:00.433Z,102303.36
2018-12-14T16:23:28.296Z,102297.24
2018-12-14T16:25:55.917Z,102298.13
2018-12-14T16:28:23.525Z,102300.45
2018-12-14T16:30:51.082Z,102306.11
2018-12-14T16:33:18.684Z,102300.27
2018-12-14T16:35:47.068Z,102302.98
2018-12-14T16:38:14.669Z,102300.81
2018-12-14T16:40:42.304Z,102304.19
2018-12-14T16:43:09.894Z,102302.29
2018-12-14T16:45:37.766Z,102304.37
2018-12-14T16:48:05.363Z,102303.45
2018-12-14T16:50:33.001Z,102305.61
2018-12-14T16:53:00.653Z,102300.05
2018-12-14T16:55:28.343Z,102301.36
2018-12-14T16:57:55.890Z,102305.17
2018-12-14T17:00:23.468Z,102301.11
2018-12-14T17:02:51.407Z,102305.77
2018-12-14T17:05:18.985Z,102305.61
2018-12-14T17:07:46.555Z,102306.85
2018-12-14T17:10:14.295Z,102305.50
2018-12-14T17:12:41.893Z,102312.64
2018-12-14T17:15:09.598Z,102312.51
2018-12-14T17:17:37.371Z,102316.23
2018-12-14T17:20:05.500Z,102316.20
2018-12-14T17:22:33.140Z,102320.34
2018-12-14T17:25:00.774Z,102322.63
2018-12-14T17:27:28.356Z,102321.39
2018-12-14T17:29:56.012Z,102319.77
2018-12-14T17:32:23.581Z,102324.19
2018-12-14T17:34:51.159Z,102324.65
2018-12-14T17:37:19.118Z,102316.17
2018-12-14T17:39:46.721Z,102325.61
2018-12-14T17:42:14.335Z,102316.67
2018-12-14T17:44:41.885Z,102320.46
2018-12-14T17:47:09.565Z,102319.61
2018-12-14T17:49:37.139Z,102318.02
2018-12-14T17:52:05.195Z,102319.77
2018-12-14T17:54:32.786Z,102326.55
2018-12-14T17:57:00.384Z,102324.19
2018-12-14T17:59:27.922Z,102326.19
2018-12-14T18:01:55.543Z,102328.14
2018-12-14T18:04:23.595Z,102331.77
2018-12-14T18:06:51.170Z,102330.06
2018-12-14T18:09:18.737Z,102330.14
2018-12-14T18:11:46.351Z,102333.20
2018-12-14T18:14:13.947Z,102330.07
2018-12-14T18:16:41.819Z,102325.19
2018-12-14T18:19:09.400Z,102332.74
2018-12-14T18:21:37.008Z,102322.56
2018-12-14T18:24:04.595Z,102331.63
2018-12-14T18:26:32.210Z,102329.56
2018-12-14T18:28:59.804Z,102332.01
2018-12-14T18:31:27.421Z,102334.72
2018-12-14T18:33:54.972Z,102339.72
2018-12-14T18:36:22.584Z,102339.48
2018-12-14T18:38:50.204Z,102341.84
2018-12-14T18:41:17.829Z,102341.73
2018-12-14T18:43:45.411Z,102346.84
2018-12-14T18:46:12.977Z,102355.75
2018-12-14T18:48:40.603Z,102356.61
2018-12-14T18:51:08.229Z,102353.78
2018-12-14T18:53:35.874Z,102351.99
2018-12-14T18:56:03.506Z,102358.00
2018-12-14T18:58:31.653Z,102356.80
2018-12-14T19:00:59.223Z,102359.20
2018-12-14T19:03:26.794Z,102361.95
2018-12-14T19:05:54.421Z,102356.41
2018-12-14T19:08:22.031Z,102354.32
2018-12-14T19:10:49.696Z,102355.83
2018-12-14T19:13:17.225Z,102362.11
2018-12-14T19:15:44.841Z,102360.02
2018-12-14T19:18:12.425Z,102367.95
2018-12-14T19:20:39.990Z,102366.33
2018-12-14T19:23:07.598Z,102366.95
2018-12-14T19:25:35.159Z,102373.61
2018-12-14T19:28:02.786Z,102371.75
2018-12-14T19:30:30.475Z,102373.14
2018-12-14T19:32:58.054Z,102379.50
2018-12-14T19:35:25.642Z,102379.46
2018-12-14T19:37:53.273Z,102382.36
2018-12-14T19:40:21.235Z,102383.72
2018-12-14T19:42:48.812Z,102386.52
2018-12-14T19:45:16.406Z,102389.77
2018-12-14T19:47:44.008Z,102395.19
2018-12-14T19:50:11.564Z,102389.25
2018-12-14T19:52:39.207Z,102391.97
2018-12-14T19:55:08.635Z,102390.46
2018-12-14T19:57:36.224Z,102391.89
2018-12-14T20:00:07.252Z,102385.53
2018-12-14T20:02:35.344Z,102389.33
2018-12-14T20:05:02.899Z,102394.64
2018-12-14T20:07:30.571Z,102394.56
2018-12-14T20:09:58.127Z,102392.55
2018-12-14T20:12:25.663Z,102393.56
2018-12-14T20:14:53.248Z,102395.03
2018-12-14T20:17:20.838Z,102390.57
2018-12-14T20:19:48.407Z,102395.61
2018-12-14T20:22:16.000Z,102405.52
2018-12-14T20:24:43.565Z,102408.51
2018-12-14T20:27:11.153Z,102405.09
2018-12-14T20:29:38.750Z,102417.03
2018-12-14T20:32:06.361Z,102416.65
2018-12-14T20:34:33.970Z,102416.65
2018-12-14T20:37:01.519Z,102418.69
2018-12-14T20:39:29.063Z,102414.78
2018-12-14T20:41:56.672Z,102417.27
2018-12-14T20:44:24.235Z,102422.26
2018-12-14T20:46:51.837Z,102414.36
2018-12-14T20:49:19.433Z,102417.91
2018-12-14T20:51:46.982Z,102423.72
2018-12-14T20:54:14.600Z,102418.53
2018-12-14T20:56:42.515Z,102419.26
2018-12-14T20:59:10.104Z,102424.98
2018-12-14T21:01:37.703Z,102420.31
2018-12-14T21:04:05.251Z,102418.02
2018-12-14T21:06:32.817Z,102427.23
2018-12-14T21:09:00.400Z,102422.13
2018-12-14T21:11:27.984Z,102420.89
2018-12-14T21:13:55.572Z,102420.11
2018-12-14T21:16:26.059Z,102419.95
2018-12-14T21:18:53.161Z,102421.43
2018-12-14T21:21:20.726Z,102412.28
2018-12-14T21:23:49.024Z,102424.98
2018-12-14T21:26:16.710Z,102424.78
2018-12-14T21:28:44.273Z,102427.31
2018-12-14T21:31:11.821Z,102422.28
2018-12-14T21:33:39.541Z,102430.11
2018-12-14T21:36:07.152Z,102428.48
2018-12-14T21:38:34.852Z,102427.63
2018-12-14T21:41:02.421Z,102427.23
2018-12-14T21:43:29.992Z,102423.13
2018-12-14T21:45:57.616Z,102419.72
2018-12-14T21:48:25.259Z,102419.19
2018-12-14T21:50:52.886Z,102414.64
2018-12-14T21:53:21.599Z,102422.45
2018-12-14T21:55:49.409Z,102418.89
2018-12-14T21:58:17.134Z,102419.77
2018-12-14T22:00:44.705Z,102417.98
2018-12-14T22:03:12.353Z,102418.63
2018-12-14T22:05:40.053Z,102415.22
2018-12-14T22:08:07.647Z,102415.76
2018-12-14T22:10:35.340Z,102418.17
2018-12-14T22:13:02.938Z,102418.84
2018-12-14T22:15:30.497Z,102419.41
2018-12-14T22:17:58.065Z,102419.95
2018-12-14T22:20:25.664Z,102421.66
2018-12-14T22:22:53.266Z,102419.87
2018-12-14T22:25:20.850Z,102422.66
2018-12-14T22:27:48.418Z,102420.41
2018-12-14T22:30:15.976Z,102425.53
2018-12-14T22:32:43.914Z,102424.67
2018-12-14T22:35:11.499Z,102415.61
2018-12-14T22:37:39.241Z,102422.51
2018-12-14T22:40:07.396Z,102418.31
2018-12-14T22:42:35.542Z,102420.16
2018-12-14T22:45:03.305Z,102415.92
2018-12-14T22:47:30.912Z,102417.83
2018-12-14T22:49:58.570Z,102416.20
2018-12-14T22:52:26.141Z,102413.52
2018-12-14T22:54:53.808Z,102408.83
2018-12-14T22:57:21.367Z,102414.91
2018-12-14T22:59:49.013Z,102419.41
2018-12-14T23:02:16.788Z,102412.98
2018-12-14T23:04:44.394Z,102409.87
2018-12-14T23:07:12.423Z,102412.13
2018-12-14T23:09:40.195Z,102417.31
2018-12-14T23:12:07.781Z,102415.76
2018-12-14T23:14:35.717Z,102419.63
2018-12-14T23:17:03.280Z,102425.36
2018-12-14T23:19:31.139Z,102422.27
2018-12-14T23:21:58.703Z,102431.55
2018-12-14T23:24:26.257Z,102431.20
2018-12-14T23:26:54.140Z,102431.41
2018-12-14T23:29:21.697Z,102427.44
2018-12-14T23:31:49.256Z,102426.53
2018-12-14T23:34:17.693Z,102430.94
2018-12-14T23:36:45.277Z,102433.34
2018-12-14T23:39:12.860Z,102430.03
2018-12-14T23:41:40.444Z,102425.69
2018-12-14T23:44:08.032Z,102428.39
2018-12-14T23:46:35.660Z,102433.52
2018-12-14T23:49:03.373Z,102432.59
2018-12-14T23:51:31.040Z,102433.91
2018-12-14T23:53:58.627Z,102432.45
2018-12-14T23:56:26.211Z,102439.78
2018-12-14T23:58:53.806Z,102435.44
